createdAt,value
2022-08-17T00:00:43.929Z,17.02
2022-08-17T00:03:20.210Z,17.83
2022-08-17T00:06:07.102Z,16.30
2022-08-17T00:08:44.016Z,15.70
2022-08-17T00:11:30.697Z,18.77
2022-08-17T00:14:15.594Z,16.63
2022-08-17T00:16:56.565Z,23.45
2022-08-17T00:19:26.171Z,17.98
2022-08-17T00:22:33.672Z,18.08
2022-08-17T00:24:44.615Z,19.52
2022-08-17T00:27:11.712Z,18.35
2022-08-17T00:29:38.634Z,15.63
2022-08-17T00:33:15.900Z,19.77
2022-08-17T00:34:53.082Z,16.42
2022-08-17T00:37:20.035Z,15.57
2022-08-17T00:39:47.099Z,22.13
2022-08-17T00:42:19.432Z,17.45
2022-08-17T00:44:46.721Z,20.17
2022-08-17T00:47:14.368Z,16.13
2022-08-17T00:49:41.475Z,15.85
2022-08-17T00:52:16.666Z,19.73
2022-08-17T00:54:49.025Z,18.90
2022-08-17T00:57:31.123Z,21.52
2022-08-17T01:00:10.094Z,21.10
2022-08-17T01:02:43.207Z,21.10
2022-08-17T01:05:20.772Z,19.25
2022-08-17T01:07:52.927Z,19.73
2022-08-17T01:11:00.084Z,18.30
2022-08-17T01:13:23.653Z,22.13
2022-08-17T01:16:17.029Z,18.42
2022-08-17T01:18:48.992Z,21.40
2022-08-17T01:21:31.813Z,19.17
2022-08-17T01:24:00.049Z,19.00
2022-08-17T01:26:29.139Z,16.92
2022-08-17T01:28:56.734Z,22.67
2022-08-17T01:31:30.921Z,17.95
2022-08-17T01:34:06.595Z,16.73
2022-08-17T01:36:34.352Z,17.35
2022-08-17T01:39:01.622Z,19.65
2022-08-17T01:41:29.116Z,19.48
2022-08-17T01:44:02.654Z,19.27
2022-08-17T01:46:35.568Z,18.65
2022-08-17T01:49:08.931Z,22.13
2022-08-17T01:51:36.060Z,24.20
2022-08-17T01:54:10.248Z,20.13
2022-08-17T01:56:42.391Z,20.95
2022-08-17T01:59:10.109Z,19.85
2022-08-17T02:01:37.947Z,21.50
2022-08-17T02:04:08.062Z,15.73
2022-08-17T02:06:45.129Z,17.23
2022-08-17T02:09:29.673Z,21.00
2022-08-17T02:12:38.154Z,17.90
2022-08-17T02:14:47.568Z,18.25
2022-08-17T02:17:14.740Z,19.52
2022-08-17T02:19:41.923Z,24.95
2022-08-17T02:22:09.284Z,23.25
2022-08-17T02:25:00.359Z,22.20
2022-08-17T02:27:26.725Z,22.75
2022-08-17T02:29:53.778Z,19.92
2022-08-17T02:32:27.929Z,25.27
2022-08-17T02:34:59.720Z,21.90
2022-08-17T02:37:29.657Z,17.58
2022-08-17T02:39:58.681Z,18.63
2022-08-17T02:42:34.523Z,24.67
2022-08-17T02:45:05.467Z,18.95
2022-08-17T02:47:32.488Z,21.00
2022-08-17T02:49:59.503Z,20.35
2022-08-17T02:52:43.290Z,20.17
2022-08-17T02:55:22.272Z,17.63
2022-08-17T02:57:51.142Z,19.25
2022-08-17T03:00:26.032Z,22.00
2022-08-17T03:02:53.402Z,24.23
2022-08-17T03:05:25.782Z,23.52
2022-08-17T03:07:53.234Z,21.52
2022-08-17T03:10:21.654Z,19.13
2022-08-17T03:12:50.343Z,21.88
2022-08-17T03:15:23.947Z,19.27
2022-08-17T03:17:52.377Z,20.13
2022-08-17T03:20:20.915Z,19.38
2022-08-17T03:22:54.618Z,19.58
2022-08-17T03:25:41.256Z,19.67
2022-08-17T03:28:12.225Z,18.13
2022-08-17T03:30:40.379Z,18.42
2022-08-17T03:33:12.272Z,19.27
2022-08-17T03:35:41.068Z,18.17
2022-08-17T03:38:10.851Z,23.27
2022-08-17T03:40:57.101Z,23.77
2022-08-17T03:43:25.951Z,18.70
2022-08-17T03:46:28.248Z,20.77
2022-08-17T03:49:17.761Z,18.85
2022-08-17T03:52:03.374Z,18.63
2022-08-17T03:54:49.015Z,19.73
2022-08-17T03:57:16.667Z,19.27
2022-08-17T03:59:45.158Z,19.05
2022-08-17T04:02:19.798Z,17.50
2022-08-17T04:04:50.920Z,16.55
2022-08-17T04:07:20.837Z,18.88
2022-08-17T04:09:48.233Z,17.15
2022-08-17T04:12:22.396Z,17.92
2022-08-17T04:14:52.929Z,20.95
2022-08-17T04:17:27.697Z,16.80
2022-08-17T04:19:55.980Z,18.65
2022-08-17T04:22:32.945Z,16.90
2022-08-17T04:25:34.057Z,19.13
2022-08-17T04:28:02.775Z,21.52
2022-08-17T04:30:33.228Z,19.85
2022-08-17T04:33:08.685Z,21.15
2022-08-17T04:35:50.516Z,22.13
2022-08-17T04:38:22.858Z,17.48
2022-08-17T04:41:09.402Z,19.02
2022-08-17T04:43:39.166Z,21.55
2022-08-17T04:46:11.486Z,20.90
2022-08-17T04:48:42.843Z,20.27
2022-08-17T04:51:22.722Z,21.52
2022-08-17T04:53:55.006Z,20.23
2022-08-17T04:56:25.916Z,18.42
2022-08-17T04:59:00.883Z,20.58
2022-08-17T05:01:32.459Z,19.65
2022-08-17T05:04:32.973Z,18.02
2022-08-17T05:06:51.718Z,19.67
2022-08-17T05:09:18.982Z,18.20
2022-08-17T05:11:46.691Z,20.63
2022-08-17T05:14:14.555Z,19.42
2022-08-17T05:16:41.852Z,18.63
2022-08-17T05:19:08.847Z,23.58
2022-08-17T05:21:35.786Z,22.50
2022-08-17T05:24:16.747Z,20.50
2022-08-17T05:26:50.973Z,19.23
2022-08-17T05:29:18.869Z,20.75
2022-08-17T05:31:45.872Z,18.05
2022-08-17T05:34:12.864Z,17.77
2022-08-17T05:36:43.691Z,20.23
2022-08-17T05:39:15.787Z,18.42
2022-08-17T05:41:47.100Z,19.20
2022-08-17T05:44:15.118Z,16.02
2022-08-17T05:46:50.751Z,21.42
2022-08-17T05:49:27.152Z,18.25
2022-08-17T05:52:31.669Z,20.48
2022-08-17T05:55:18.422Z,18.42
2022-08-17T05:58:08.772Z,17.60
2022-08-17T06:00:42.064Z,20.00
2022-08-17T06:04:04.693Z,17.25
2022-08-17T06:06:41.535Z,16.58
2022-08-17T06:10:04.403Z,16.25
2022-08-17T06:12:59.537Z,17.92
2022-08-17T06:15:59.674Z,15.38
2022-08-17T06:18:39.097Z,16.00
2022-08-17T06:21:13.192Z,16.15
2022-08-17T06:23:50.779Z,13.40
2022-08-17T06:26:38.598Z,13.65
2022-08-17T06:29:35.405Z,17.23
2022-08-17T06:32:05.524Z,15.45
2022-08-17T06:34:33.994Z,11.98
2022-08-17T06:37:10.241Z,14.48
2022-08-17T06:40:02.660Z,11.13
2022-08-17T06:43:02.000Z,15.52
2022-08-17T06:45:50.485Z,11.48
2022-08-17T06:48:58.857Z,12.93
2022-08-17T06:51:38.231Z,10.10
2022-08-17T06:54:21.879Z,12.05
2022-08-17T06:57:22.620Z,12.27
2022-08-17T07:00:16.782Z,14.30
2022-08-17T07:03:12.401Z,15.75
2022-08-17T07:05:53.259Z,11.75
2022-08-17T07:08:53.274Z,10.45
2022-08-17T07:15:09.733Z,9.73
2022-08-17T07:17:47.357Z,13.02
2022-08-17T07:20:22.724Z,9.90
2022-08-17T07:23:01.915Z,13.50
2022-08-17T07:25:30.915Z,10.52
2022-08-17T07:28:02.564Z,9.52
2022-08-17T07:30:46.822Z,9.82
2022-08-17T07:33:30.946Z,11.65
2022-08-17T07:35:59.374Z,11.65
2022-08-17T07:38:35.581Z,10.23
2022-08-17T07:41:07.884Z,12.75
2022-08-17T07:43:48.450Z,11.73
2022-08-17T07:46:42.871Z,9.55
2022-08-17T07:49:09.755Z,12.57
2022-08-17T07:51:42.218Z,11.77
2022-08-17T07:54:28.959Z,17.30
2022-08-17T07:57:00.271Z,11.25
2022-08-17T07:59:40.781Z,13.48
2022-08-17T08:05:48.781Z,9.40
2022-08-17T08:08:44.367Z,10.52
2022-08-17T08:11:27.880Z,8.40
2022-08-17T08:13:55.010Z,9.90
2022-08-17T08:16:29.628Z,14.02
2022-08-17T08:19:01.223Z,9.10
2022-08-17T08:21:51.281Z,13.20
2022-08-17T08:24:33.173Z,14.55
2022-08-17T08:27:18.133Z,12.38
2022-08-17T08:30:15.111Z,11.00
2022-08-17T08:33:12.500Z,10.18
2022-08-17T08:35:53.973Z,10.15
2022-08-17T08:38:47.893Z,9.57
2022-08-17T08:41:43.025Z,11.25
2022-08-17T08:44:18.964Z,10.30
2022-08-17T08:47:27.483Z,12.13
2022-08-17T08:50:37.154Z,9.98
2022-08-17T08:53:40.190Z,20.50
2022-08-17T08:56:26.854Z,13.73
2022-08-17T08:59:28.401Z,10.80
2022-08-17T09:02:46.759Z,12.88
2022-08-17T09:05:32.222Z,13.55
2022-08-17T09:08:11.178Z,11.07
2022-08-17T09:11:10.806Z,11.30
2022-08-17T09:13:58.253Z,10.55
2022-08-17T09:16:48.699Z,11.18
2022-08-17T09:19:30.350Z,12.85
2022-08-17T09:22:25.607Z,13.02
2022-08-17T09:25:09.061Z,12.15
2022-08-17T09:27:48.219Z,11.32
2022-08-17T09:30:15.643Z,10.40
2022-08-17T09:33:00.198Z,14.75
2022-08-17T09:35:51.302Z,11.18
2022-08-17T09:39:08.122Z,10.85
2022-08-17T09:42:00.537Z,11.80
2022-08-17T09:44:41.648Z,10.60
2022-08-17T09:47:31.733Z,14.77
2022-08-17T09:50:12.575Z,11.30
2022-08-17T09:52:44.238Z,11.20
2022-08-17T09:55:11.381Z,10.75
2022-08-17T09:58:07.470Z,10.73
2022-08-17T10:00:44.080Z,11.02
2022-08-17T10:03:29.439Z,14.73
2022-08-17T10:06:13.429Z,13.55
2022-08-17T10:08:52.531Z,12.20
2022-08-17T10:12:10.568Z,11.43
2022-08-17T10:15:29.213Z,12.88
2022-08-17T10:18:16.596Z,11.23
2022-08-17T10:21:28.992Z,13.10
2022-08-17T10:25:02.041Z,11.10
2022-08-17T10:27:49.120Z,13.35
2022-08-17T10:30:24.358Z,12.38
2022-08-17T10:33:23.636Z,14.27
2022-08-17T10:36:05.346Z,21.85
2022-08-17T10:39:04.490Z,13.65
2022-08-17T10:41:44.908Z,11.50
2022-08-17T10:44:47.437Z,10.60
2022-08-17T10:47:19.481Z,11.97
2022-08-17T10:49:53.900Z,12.13
2022-08-17T10:52:21.967Z,10.02
2022-08-17T10:54:51.825Z,10.23
2022-08-17T10:57:33.823Z,10.27
2022-08-17T11:00:24.296Z,12.00
2022-08-17T11:02:57.523Z,11.10
2022-08-17T11:05:54.581Z,11.05
2022-08-17T11:08:57.502Z,10.45
2022-08-17T11:11:52.570Z,11.70
2022-08-17T11:15:03.274Z,14.20
2022-08-17T11:18:01.615Z,12.90
2022-08-17T11:20:32.114Z,13.25
2022-08-17T11:23:28.617Z,12.90
2022-08-17T11:26:04.006Z,9.07
2022-08-17T11:28:48.864Z,12.60
2022-08-17T11:31:44.206Z,10.93
2022-08-17T11:46:46.026Z,18.65
2022-08-17T11:49:55.704Z,13.85
2022-08-17T11:52:46.745Z,9.45
2022-08-17T11:55:36.286Z,13.13
2022-08-17T11:58:32.011Z,11.95
2022-08-17T12:01:01.113Z,11.15
2022-08-17T12:03:33.908Z,11.27
2022-08-17T12:06:31.119Z,12.88
2022-08-17T12:09:24.941Z,30.98
2022-08-17T12:12:12.539Z,12.35
2022-08-17T12:17:41.663Z,11.38
2022-08-17T12:20:31.071Z,12.23
2022-08-17T12:23:24.310Z,10.57
2022-08-17T12:26:12.671Z,11.45
2022-08-17T12:28:50.230Z,11.52
2022-08-17T12:31:27.266Z,13.95
2022-08-17T12:33:54.617Z,17.13
2022-08-17T12:36:28.163Z,10.40
2022-08-17T12:39:12.918Z,14.57
2022-08-17T12:41:47.017Z,13.77
2022-08-17T12:44:18.306Z,25.58
2022-08-17T12:47:04.609Z,12.32
2022-08-17T12:49:35.594Z,11.43
2022-08-17T12:52:20.669Z,11.68
2022-08-17T12:55:07.389Z,13.23
2022-08-17T12:57:44.257Z,12.35
2022-08-17T13:00:26.669Z,13.25
2022-08-17T13:03:21.246Z,13.98
2022-08-17T13:06:00.643Z,12.98
2022-08-17T13:08:36.066Z,22.98
2022-08-17T13:11:08.517Z,13.38
2022-08-17T13:13:40.167Z,13.55
2022-08-17T13:16:11.685Z,12.75
2022-08-17T13:19:15.331Z,10.70
2022-08-17T13:21:57.767Z,23.63
2022-08-17T13:24:30.827Z,26.45
2022-08-17T13:27:15.305Z,10.38
2022-08-17T13:29:45.349Z,13.88
2022-08-17T13:32:33.598Z,16.05
2022-08-17T13:35:29.685Z,12.90
2022-08-17T13:38:13.056Z,18.17
2022-08-17T13:40:50.109Z,11.80
2022-08-17T13:43:44.777Z,12.70
2022-08-17T13:46:27.835Z,13.35
2022-08-17T13:49:11.481Z,14.93
2022-08-17T13:51:47.293Z,13.27
2022-08-17T13:54:34.431Z,11.00
2022-08-17T13:57:16.285Z,11.85
2022-08-17T13:59:54.262Z,16.67
2022-08-17T14:02:26.085Z,17.23
2022-08-17T14:04:56.256Z,12.85
2022-08-17T14:07:37.872Z,11.68
2022-08-17T14:10:17.742Z,13.77
2022-08-17T14:12:46.236Z,21.05
2022-08-17T14:15:17.518Z,14.43
2022-08-17T14:17:44.580Z,13.25
2022-08-17T14:20:14.385Z,12.88
2022-08-17T14:22:49.514Z,12.10
2022-08-17T14:25:24.482Z,11.95
2022-08-17T14:27:54.106Z,12.10
2022-08-17T14:30:26.993Z,29.33
2022-08-17T14:32:58.006Z,16.95
2022-08-17T14:35:27.456Z,11.55
2022-08-17T14:37:54.840Z,16.27
2022-08-17T14:40:27.053Z,14.18
2022-08-17T14:42:56.706Z,12.50
2022-08-17T14:45:32.325Z,12.63
2022-08-17T14:48:07.707Z,17.27
2022-08-17T14:50:38.903Z,17.23
2022-08-17T14:53:12.506Z,13.13
2022-08-17T14:55:40.905Z,12.65
2022-08-17T14:58:09.178Z,13.57
2022-08-17T15:00:37.600Z,18.75
2022-08-17T15:03:05.643Z,17.92
2022-08-17T15:05:39.261Z,13.88
2022-08-17T15:08:07.522Z,15.20
2022-08-17T15:10:35.502Z,15.60
2022-08-17T15:13:02.614Z,12.43
2022-08-17T15:15:30.398Z,16.50
2022-08-17T15:17:58.097Z,15.50
2022-08-17T15:20:29.762Z,23.55
2022-08-17T15:22:59.533Z,22.80
2022-08-17T15:25:30.244Z,12.48
2022-08-17T15:27:57.593Z,13.27
2022-08-17T15:30:26.604Z,34.50
2022-08-17T15:32:55.328Z,36.80
2022-08-17T15:35:29.815Z,14.77
2022-08-17T15:38:11.654Z,16.13
2022-08-17T15:40:57.619Z,16.65
2022-08-17T15:43:32.470Z,19.02
2022-08-17T15:46:26.966Z,17.25
2022-08-17T15:49:00.229Z,15.77
2022-08-17T15:51:31.096Z,16.85
2022-08-17T15:54:17.139Z,14.90
2022-08-17T15:56:46.401Z,20.85
2022-08-17T15:59:13.539Z,24.70
2022-08-17T16:02:29.881Z,16.95
2022-08-17T16:04:30.729Z,18.00
2022-08-17T16:07:00.367Z,16.77
2022-08-17T16:09:28.137Z,16.40
2022-08-17T16:11:56.102Z,16.83
2022-08-17T16:14:32.320Z,17.40
2022-08-17T16:17:03.546Z,24.10
2022-08-17T16:19:31.195Z,17.23
2022-08-17T16:21:58.216Z,23.38
2022-08-17T16:24:25.683Z,18.17
2022-08-17T16:26:52.753Z,14.48
2022-08-17T16:29:19.773Z,14.05
2022-08-17T16:31:47.058Z,18.70
2022-08-17T16:34:17.924Z,19.13
2022-08-17T16:36:55.682Z,21.90
2022-08-17T16:39:26.230Z,19.35
2022-08-17T16:41:53.455Z,17.92
2022-08-17T16:44:22.104Z,19.33
2022-08-17T16:46:50.381Z,22.10
2022-08-17T16:49:24.452Z,18.13
2022-08-17T16:52:10.043Z,21.27
2022-08-17T16:54:43.652Z,22.35
2022-08-17T16:57:13.251Z,16.98
2022-08-17T16:59:44.952Z,21.88
2022-08-17T17:02:23.642Z,20.77
2022-08-17T17:05:29.578Z,17.73
2022-08-17T17:08:07.719Z,18.85
2022-08-17T17:10:47.588Z,22.25
2022-08-17T17:13:46.829Z,16.27
2022-08-17T17:16:25.986Z,20.85
2022-08-17T17:19:35.314Z,18.80
2022-08-17T17:22:16.368Z,23.63
2022-08-17T17:25:04.554Z,25.42
2022-08-17T17:27:57.181Z,21.45
2022-08-17T17:30:47.746Z,17.30
2022-08-17T17:33:34.749Z,20.25
2022-08-17T17:36:22.674Z,17.15
2022-08-17T17:39:05.238Z,20.08
2022-08-17T17:42:00.470Z,19.13
2022-08-17T17:44:41.069Z,22.30
2022-08-17T17:47:08.482Z,21.17
2022-08-17T17:49:41.460Z,22.30
2022-08-17T17:52:24.881Z,23.65
2022-08-17T17:55:25.246Z,22.52
2022-08-17T17:58:19.977Z,22.27
2022-08-17T18:01:25.477Z,23.90
2022-08-17T18:04:31.363Z,18.00
2022-08-17T18:07:27.581Z,24.23
2022-08-17T18:10:30.446Z,19.73
2022-08-17T18:13:05.430Z,21.77
2022-08-17T18:16:02.973Z,24.83
2022-08-17T18:18:38.173Z,21.08
2022-08-17T18:21:21.058Z,25.52
2022-08-17T18:23:55.990Z,27.67
2022-08-17T18:26:36.526Z,24.23
2022-08-17T18:29:34.372Z,17.48
2022-08-17T18:32:34.277Z,20.35
2022-08-17T18:35:09.725Z,21.48
2022-08-17T18:37:45.010Z,22.45
2022-08-17T18:40:19.947Z,24.88
2022-08-17T18:43:04.511Z,26.23
2022-08-17T18:45:45.265Z,25.73
2022-08-17T18:48:32.968Z,18.83
2022-08-17T18:51:26.341Z,21.10
2022-08-17T18:54:22.920Z,21.23
2022-08-17T18:56:59.132Z,18.38
2022-08-17T18:59:42.600Z,20.15
2022-08-17T19:02:45.109Z,23.58
2022-08-17T19:05:51.870Z,25.67
2022-08-17T19:08:31.217Z,24.65
2022-08-17T19:11:07.217Z,28.73
2022-08-17T19:13:57.531Z,27.65
2022-08-17T19:16:31.935Z,28.90
2022-08-17T19:19:12.188Z,24.30
2022-08-17T19:21:52.444Z,27.70
2022-08-17T19:24:31.509Z,23.77
2022-08-17T19:27:11.403Z,30.00
2022-08-17T19:29:50.352Z,29.08
2022-08-17T19:32:25.030Z,26.15
2022-08-17T19:34:52.926Z,34.72
2022-08-17T19:37:44.972Z,30.38
2022-08-17T19:40:53.653Z,26.55
2022-08-17T19:43:36.697Z,31.25
2022-08-17T19:46:11.665Z,27.17
2022-08-17T19:49:06.277Z,28.98
2022-08-17T19:51:57.139Z,28.42
2022-08-17T19:54:38.098Z,29.67
2022-08-17T19:57:37.012Z,26.77
2022-08-17T20:00:16.053Z,33.78
2022-08-17T20:03:06.188Z,27.70
2022-08-17T20:06:10.809Z,28.48
2022-08-17T20:08:45.724Z,30.30
2022-08-17T20:11:30.442Z,34.70
2022-08-17T20:14:11.941Z,30.25
2022-08-17T20:16:39.517Z,35.20
2022-08-17T20:19:21.415Z,39.70
2022-08-17T20:22:09.368Z,32.33
2022-08-17T20:25:10.162Z,29.27
2022-08-17T20:27:55.019Z,33.22
2022-08-17T20:30:40.687Z,33.83
2022-08-17T20:33:34.389Z,29.90
2022-08-17T20:36:04.075Z,33.25
2022-08-17T20:38:51.055Z,32.67
2022-08-17T20:41:28.928Z,34.10
2022-08-17T20:43:59.706Z,33.80
2022-08-17T20:46:38.798Z,36.70
2022-08-17T20:49:08.873Z,39.80
2022-08-17T20:52:09.333Z,37.15
2022-08-17T20:55:00.246Z,42.08
2022-08-17T20:57:33.287Z,44.80
2022-08-17T21:00:27.784Z,46.58
2022-08-17T21:03:22.620Z,58.17
2022-08-17T21:06:17.170Z,45.55
2022-08-17T21:08:55.211Z,46.65
2022-08-17T21:12:00.051Z,46.08
2022-08-17T21:14:35.500Z,47.97
2022-08-17T21:17:40.136Z,42.85
2022-08-17T21:20:33.005Z,48.38
2022-08-17T21:23:20.580Z,44.67
2022-08-17T21:26:11.969Z,44.10
2022-08-17T21:29:14.715Z,42.20
2022-08-17T21:32:05.512Z,45.42
2022-08-17T21:34:36.019Z,42.10
2022-08-17T21:37:22.206Z,40.60
2022-08-17T21:40:18.921Z,42.80
2022-08-17T21:42:58.119Z,40.53
2022-08-17T21:45:41.700Z,39.10
2022-08-17T21:48:24.582Z,41.88
2022-08-17T21:51:12.348Z,38.60
2022-08-17T21:53:51.032Z,37.35
2022-08-17T21:56:32.877Z,37.30
2022-08-17T21:59:08.423Z,35.15
2022-08-17T22:01:42.765Z,34.55
2022-08-17T22:04:12.431Z,36.33
2022-08-17T22:06:52.527Z,30.40
2022-08-17T22:09:50.116Z,30.27
2022-08-17T22:12:24.227Z,31.53
2022-08-17T22:15:07.495Z,30.98
2022-08-17T22:20:16.749Z,31.20
2022-08-17T22:23:04.894Z,29.58
2022-08-17T22:25:38.249Z,29.17
2022-08-17T22:28:11.728Z,25.48
2022-08-17T22:30:42.454Z,25.30
2022-08-17T22:33:31.583Z,29.65
2022-08-17T22:36:29.871Z,26.02
2022-08-17T22:39:09.902Z,26.13
2022-08-17T22:42:00.756Z,28.67
2022-08-17T22:44:37.746Z,32.67
2022-08-17T22:47:32.191Z,32.80
2022-08-17T22:50:02.765Z,34.42
2022-08-17T22:53:03.067Z,32.97
2022-08-17T22:55:51.990Z,32.08
2022-08-17T22:58:43.056Z,36.60
2022-08-17T23:01:33.284Z,32.85
2022-08-17T23:04:31.155Z,36.03
2022-08-17T23:06:58.299Z,38.35
2022-08-17T23:09:25.247Z,39.75
2022-08-17T23:11:58.614Z,39.08
2022-08-17T23:14:31.501Z,35.67
2022-08-17T23:19:31.654Z,35.97
2022-08-17T23:22:04.182Z,35.08
2022-08-17T23:24:46.041Z,39.28
2022-08-17T23:27:13.255Z,37.08
2022-08-17T23:29:42.003Z,37.65
2022-08-17T23:32:17.140Z,33.95
2022-08-17T23:34:46.975Z,33.55
2022-08-17T23:37:15.217Z,33.80
2022-08-17T23:39:45.030Z,37.55
2022-08-17T23:42:21.757Z,33.38
2022-08-17T23:44:48.910Z,33.28
2022-08-17T23:47:15.963Z,35.45
2022-08-17T23:49:43.015Z,42.03
2022-08-17T23:52:16.475Z,37.80
2022-08-17T23:54:47.303Z,37.67
2022-08-17T23:57:19.031Z,33.83
2022-08-17T23:59:47.327Z,33.38
